sensor_id;sensor_type;location;lat;lon;timestamp;pressure;altitude;pressure_sealevel;temperature;humidity
81155;BME280;70631;50.436;7.826;2024-02-04T00:00:01;99985.06;;;9.36;83.45
81155;BME280;70631;50.436;7.826;2024-02-04T00:02:27;99981.19;;;9.40;83.11
81155;BME280;70631;50.436;7.826;2024-02-04T00:04:52;99971.63;;;9.38;83.19
81155;BME280;70631;50.436;7.826;2024-02-04T00:07:17;99978.78;;;9.37;83.64
81155;BME280;70631;50.436;7.826;2024-02-04T00:09:42;99976.97;;;9.38;83.58
81155;BME280;70631;50.436;7.826;2024-02-04T00:12:09;99969.84;;;9.38;83.08
81155;BME280;70631;50.436;7.826;2024-02-04T00:14:35;99963.91;;;9.35;83.52
81155;BME280;70631;50.436;7.826;2024-02-04T00:17:00;99955.94;;;9.35;83.30
81155;BME280;70631;50.436;7.826;2024-02-04T00:19:25;99944.56;;;9.33;83.28
81155;BME280;70631;50.436;7.826;2024-02-04T00:21:50;99933.91;;;9.33;83.56
81155;BME280;70631;50.436;7.826;2024-02-04T00:24:16;99935.38;;;9.37;83.22
81155;BME280;70631;50.436;7.826;2024-02-04T00:26:43;99928.38;;;9.36;83.50
81155;BME280;70631;50.436;7.826;2024-02-04T00:29:09;99929.22;;;9.36;83.08
81155;BME280;70631;50.436;7.826;2024-02-04T00:31:34;99936.47;;;9.34;83.04
81155;BME280;70631;50.436;7.826;2024-02-04T00:33:59;99939.25;;;9.33;83.36
81155;BME280;70631;50.436;7.826;2024-02-04T00:36:25;99949.88;;;9.33;83.28
81155;BME280;70631;50.436;7.826;2024-02-04T00:38:50;99953.47;;;9.32;83.27
81155;BME280;70631;50.436;7.826;2024-02-04T00:41:16;99953.72;;;9.29;83.15
81155;BME280;70631;50.436;7.826;2024-02-04T00:43:41;99954.56;;;9.29;83.07
81155;BME280;70631;50.436;7.826;2024-02-04T00:46:06;99968.69;;;9.30;83.26
81155;BME280;70631;50.436;7.826;2024-02-04T00:48:32;99964.34;;;9.29;83.49
81155;BME280;70631;50.436;7.826;2024-02-04T00:50:58;99965.31;;;9.28;83.84
81155;BME280;70631;50.436;7.826;2024-02-04T00:53:23;99972.44;;;9.27;83.97
81155;BME280;70631;50.436;7.826;2024-02-04T00:55:48;99960.97;;;9.27;83.93
81155;BME280;70631;50.436;7.826;2024-02-04T00:58:13;99960.97;;;9.27;83.86
81155;BME280;70631;50.436;7.826;2024-02-04T01:00:39;99970.75;;;9.26;83.84
81155;BME280;70631;50.436;7.826;2024-02-04T01:03:04;99965.44;;;9.26;83.71
81155;BME280;70631;50.436;7.826;2024-02-04T01:05:29;99970.63;;;9.28;83.50
81155;BME280;70631;50.436;7.826;2024-02-04T01:07:54;99973.06;;;9.31;83.92
81155;BME280;70631;50.436;7.826;2024-02-04T01:10:20;99976.56;;;9.31;83.89
81155;BME280;70631;50.436;7.826;2024-02-04T01:12:45;99978.16;;;9.34;83.90
81155;BME280;70631;50.436;7.826;2024-02-04T01:15:10;99988.56;;;9.37;83.87
81155;BME280;70631;50.436;7.826;2024-02-04T01:17:35;99986.63;;;9.39;83.70
81155;BME280;70631;50.436;7.826;2024-02-04T01:20:01;99986.63;;;9.39;83.48
81155;BME280;70631;50.436;7.826;2024-02-04T01:22:26;99985.91;;;9.37;83.72
81155;BME280;70631;50.436;7.826;2024-02-04T01:24:52;99997.75;;;9.33;84.00
81155;BME280;70631;50.436;7.826;2024-02-04T01:27:17;99973.28;;;9.28;84.09
81155;BME280;70631;50.436;7.826;2024-02-04T01:29:43;99965.91;;;9.20;84.00
81155;BME280;70631;50.436;7.826;2024-02-04T01:32:08;99959.97;;;9.16;84.09
81155;BME280;70631;50.436;7.826;2024-02-04T01:34:33;99970.13;;;9.11;84.08
81155;BME280;70631;50.436;7.826;2024-02-04T01:36:58;99973.22;;;9.05;84.77
81155;BME280;70631;50.436;7.826;2024-02-04T01:39:24;99974.28;;;9.03;84.72
81155;BME280;70631;50.436;7.826;2024-02-04T01:41:50;99970.06;;;9.00;84.76
81155;BME280;70631;50.436;7.826;2024-02-04T01:44:16;99967.16;;;9.03;84.70
81155;BME280;70631;50.436;7.826;2024-02-04T01:46:41;99958.94;;;9.06;85.03
81155;BME280;70631;50.436;7.826;2024-02-04T01:49:07;99963.41;;;9.06;84.61
81155;BME280;70631;50.436;7.826;2024-02-04T01:51:33;99964.28;;;9.06;84.90
81155;BME280;70631;50.436;7.826;2024-02-04T01:53:58;99954.47;;;9.07;85.05
81155;BME280;70631;50.436;7.826;2024-02-04T01:56:24;99958.09;;;9.06;85.15
81155;BME280;70631;50.436;7.826;2024-02-04T01:58:50;99957.03;;;9.08;84.72
81155;BME280;70631;50.436;7.826;2024-02-04T02:01:15;99955.09;;;9.10;84.75
81155;BME280;70631;50.436;7.826;2024-02-04T02:03:41;99942.69;;;9.11;85.05
81155;BME280;70631;50.436;7.826;2024-02-04T02:06:06;99933.81;;;9.10;85.19
81155;BME280;70631;50.436;7.826;2024-02-04T02:08:32;99929.47;;;9.09;85.12
81155;BME280;70631;50.436;7.826;2024-02-04T02:11:36;99934.31;;;9.04;85.01
81155;BME280;70631;50.436;7.826;2024-02-04T02:14:04;99927.16;;;9.05;85.30
81155;BME280;70631;50.436;7.826;2024-02-04T02:16:33;99927.28;;;9.03;85.43
81155;BME280;70631;50.436;7.826;2024-02-04T02:22:06;99915.19;;;8.99;85.30
81155;BME280;70631;50.436;7.826;2024-02-04T02:24:38;99922.28;;;8.87;85.28
81155;BME280;70631;50.436;7.826;2024-02-04T02:27:04;99918.56;;;8.90;85.41
81155;BME280;70631;50.436;7.826;2024-02-04T02:29:31;99918.31;;;8.93;85.88
81155;BME280;70631;50.436;7.826;2024-02-04T02:31:57;99917.38;;;8.94;85.82
81155;BME280;70631;50.436;7.826;2024-02-04T02:34:23;99911.81;;;8.97;85.43
81155;BME280;70631;50.436;7.826;2024-02-04T02:36:59;99909.28;;;8.96;85.43
81155;BME280;70631;50.436;7.826;2024-02-04T02:39:31;99899.50;;;8.96;85.62
81155;BME280;70631;50.436;7.826;2024-02-04T02:41:59;99909.03;;;8.99;85.70
81155;BME280;70631;50.436;7.826;2024-02-04T02:44:26;99906.25;;;9.00;85.87
81155;BME280;70631;50.436;7.826;2024-02-04T02:46:54;99892.25;;;8.98;85.84
81155;BME280;70631;50.436;7.826;2024-02-04T02:49:21;99889.59;;;8.98;85.69
81155;BME280;70631;50.436;7.826;2024-02-04T02:51:46;99892.00;;;9.01;85.66
81155;BME280;70631;50.436;7.826;2024-02-04T02:54:11;99899.97;;;9.01;85.60
81155;BME280;70631;50.436;7.826;2024-02-04T02:56:37;99895.63;;;9.00;85.75
81155;BME280;70631;50.436;7.826;2024-02-04T02:59:02;99891.28;;;8.99;85.68
81155;BME280;70631;50.436;7.826;2024-02-04T03:01:28;99900.22;;;8.98;85.84
81155;BME280;70631;50.436;7.826;2024-02-04T03:03:54;99900.22;;;8.98;85.94
81155;BME280;70631;50.436;7.826;2024-02-04T03:06:19;99898.16;;;9.02;86.01
81155;BME280;70631;50.436;7.826;2024-02-04T03:08:44;99893.69;;;9.02;85.67
81155;BME280;70631;50.436;7.826;2024-02-04T03:11:09;99895.63;;;9.00;86.09
81155;BME280;70631;50.436;7.826;2024-02-04T03:13:38;99898.16;;;9.02;86.29
81155;BME280;70631;50.436;7.826;2024-02-04T03:16:03;99884.75;;;9.03;85.96
81155;BME280;70631;50.436;7.826;2024-02-04T03:18:29;99882.94;;;9.04;86.05
81155;BME280;70631;50.436;7.826;2024-02-04T03:20:54;99881.13;;;9.04;86.02
81155;BME280;70631;50.436;7.826;2024-02-04T03:23:19;99868.81;;;9.03;85.84
81155;BME280;70631;50.436;7.826;2024-02-04T03:25:44;99888.63;;;8.99;86.25
81155;BME280;70631;50.436;7.826;2024-02-04T03:28:10;99881.38;;;9.01;86.22
81155;BME280;70631;50.436;7.826;2024-02-04T03:30:35;99876.06;;;9.01;86.06
81155;BME280;70631;50.436;7.826;2024-02-04T03:33:00;99870.97;;;8.98;85.93
81155;BME280;70631;50.436;7.826;2024-02-04T03:35:25;99879.91;;;8.97;86.07
81155;BME280;70631;50.436;7.826;2024-02-04T03:37:51;99883.31;;;8.99;86.16
81155;BME280;70631;50.436;7.826;2024-02-04T03:40:17;99879.91;;;8.97;86.20
81155;BME280;70631;50.436;7.826;2024-02-04T03:42:45;99872.78;;;8.98;86.23
81155;BME280;70631;50.436;7.826;2024-02-04T03:45:10;99879.91;;;8.97;86.46
81155;BME280;70631;50.436;7.826;2024-02-04T03:47:35;99884.28;;;8.98;86.36
81155;BME280;70631;50.436;7.826;2024-02-04T03:50:00;99886.09;;;8.98;86.19
81155;BME280;70631;50.436;7.826;2024-02-04T03:52:26;99880.66;;;8.99;86.18
81155;BME280;70631;50.436;7.826;2024-02-04T03:54:51;99879.69;;;9.00;86.18
81155;BME280;70631;50.436;7.826;2024-02-04T03:57:16;99873.41;;;9.01;86.75
81155;BME280;70631;50.436;7.826;2024-02-04T03:59:44;99870.97;;;8.98;85.98
81155;BME280;70631;50.436;7.826;2024-02-04T04:02:11;99874.50;;;8.99;86.12
81155;BME280;70631;50.436;7.826;2024-02-04T04:04:36;99871.72;;;9.00;86.22
81155;BME280;70631;50.436;7.826;2024-02-04T04:07:01;99874.38;;;9.00;85.72
81155;BME280;70631;50.436;7.826;2024-02-04T04:09:26;99863.75;;;9.00;86.25
81155;BME280;70631;50.436;7.826;2024-02-04T04:11:52;99858.53;;;8.99;86.13
81155;BME280;70631;50.436;7.826;2024-02-04T04:14:17;99867.38;;;8.99;85.90
81155;BME280;70631;50.436;7.826;2024-02-04T04:16:42;99853.34;;;8.97;86.07
81155;BME280;70631;50.436;7.826;2024-02-04T04:19:07;99867.59;;;8.96;86.06
81155;BME280;70631;50.436;7.826;2024-02-04T04:21:33;99860.47;;;8.97;86.39
81155;BME280;70631;50.436;7.826;2024-02-04T04:23:58;99863.13;;;8.97;86.16
81155;BME280;70631;50.436;7.826;2024-02-04T04:26:23;99861.44;;;8.96;86.27
81155;BME280;70631;50.436;7.826;2024-02-04T04:28:49;99856.97;;;8.96;86.48
81155;BME280;70631;50.436;7.826;2024-02-04T04:31:14;99872.19;;;8.94;86.38
81155;BME280;70631;50.436;7.826;2024-02-04T04:33:40;99878.22;;;8.96;86.18
81155;BME280;70631;50.436;7.826;2024-02-04T04:36:05;99876.53;;;8.95;86.14
81155;BME280;70631;50.436;7.826;2024-02-04T04:38:31;99872.06;;;8.96;86.59
81155;BME280;70631;50.436;7.826;2024-02-04T04:40:56;99876.53;;;8.95;86.33
81155;BME280;70631;50.436;7.826;2024-02-04T04:43:22;99878.22;;;8.96;86.49
81155;BME280;70631;50.436;7.826;2024-02-04T04:45:47;99881.72;;;8.97;86.12
81155;BME280;70631;50.436;7.826;2024-02-04T04:48:12;99884.16;;;9.00;86.39
81155;BME280;70631;50.436;7.826;2024-02-04T04:50:37;99872.91;;;8.96;86.59
81155;BME280;70631;50.436;7.826;2024-02-04T04:53:03;99869.16;;;8.99;86.14
81155;BME280;70631;50.436;7.826;2024-02-04T04:55:28;99869.06;;;9.00;86.28
81155;BME280;70631;50.436;7.826;2024-02-04T04:57:53;99879.56;;;9.02;86.32
81155;BME280;70631;50.436;7.826;2024-02-04T05:00:19;99881.13;;;9.04;86.15
81155;BME280;70631;50.436;7.826;2024-02-04T05:02:44;99886.22;;;9.07;86.14
81155;BME280;70631;50.436;7.826;2024-02-04T05:05:11;99874.84;;;9.05;86.06
81155;BME280;70631;50.436;7.826;2024-02-04T05:07:37;99870.28;;;9.07;86.23
81155;BME280;70631;50.436;7.826;2024-02-04T05:10:02;99878.47;;;9.04;85.91
81155;BME280;70631;50.436;7.826;2024-02-04T05:12:27;99882.84;;;9.05;85.93
81155;BME280;70631;50.436;7.826;2024-02-04T05:14:53;99879.22;;;9.06;85.96
81155;BME280;70631;50.436;7.826;2024-02-04T05:17:18;99882.22;;;9.02;86.16
81155;BME280;70631;50.436;7.826;2024-02-04T05:19:43;99887.91;;;9.08;85.73
81155;BME280;70631;50.436;7.826;2024-02-04T05:22:09;99893.34;;;9.07;85.88
81155;BME280;70631;50.436;7.826;2024-02-04T05:24:34;99888.03;;;9.07;85.80
81155;BME280;70631;50.436;7.826;2024-02-04T05:27:00;99887.31;;;9.05;86.32
81155;BME280;70631;50.436;7.826;2024-02-04T05:29:25;99889.13;;;9.04;86.12
81155;BME280;70631;50.436;7.826;2024-02-04T05:31:50;99881.63;;;9.09;86.11
81155;BME280;70631;50.436;7.826;2024-02-04T05:34:16;99879.94;;;9.08;85.73
81155;BME280;70631;50.436;7.826;2024-02-04T05:36:42;99871.22;;;9.06;86.07
81155;BME280;70631;50.436;7.826;2024-02-04T05:39:14;99868.56;;;9.06;85.77
81155;BME280;70631;50.436;7.826;2024-02-04T05:41:41;99880.78;;;9.09;85.91
81155;BME280;70631;50.436;7.826;2024-02-04T05:44:07;99882.59;;;9.08;86.07
81155;BME280;70631;50.436;7.826;2024-02-04T05:46:37;99878.00;;;9.10;85.72
81155;BME280;70631;50.436;7.826;2024-02-04T05:49:02;99881.63;;;9.09;85.71
81155;BME280;70631;50.436;7.826;2024-02-04T05:51:27;99869.31;;;9.08;86.03
81155;BME280;70631;50.436;7.826;2024-02-04T05:53:53;99877.06;;;9.11;85.79
81155;BME280;70631;50.436;7.826;2024-02-04T05:56:19;99869.81;;;9.13;85.62
81155;BME280;70631;50.436;7.826;2024-02-04T05:58:45;99874.91;;;9.16;85.64
81155;BME280;70631;50.436;7.826;2024-02-04T06:01:10;99881.06;;;9.17;85.39
81155;BME280;70631;50.436;7.826;2024-02-04T06:03:36;99870.31;;;9.18;85.59
81155;BME280;70631;50.436;7.826;2024-02-04T06:06:01;99868.50;;;9.19;85.50
81155;BME280;70631;50.436;7.826;2024-02-04T06:08:26;99877.19;;;9.21;85.42
81155;BME280;70631;50.436;7.826;2024-02-04T06:10:51;99872.97;;;9.18;85.78
81155;BME280;70631;50.436;7.826;2024-02-04T06:13:17;99874.66;;;9.19;85.48
81155;BME280;70631;50.436;7.826;2024-02-04T06:15:42;99868.38;;;9.21;85.19
81155;BME280;70631;50.436;7.826;2024-02-04T06:18:07;99869.34;;;9.19;85.78
81155;BME280;70631;50.436;7.826;2024-02-04T06:20:32;99864.03;;;9.19;85.39
81155;BME280;70631;50.436;7.826;2024-02-04T06:22:58;99871.88;;;9.21;85.46
81155;BME280;70631;50.436;7.826;2024-02-04T06:25:23;99872.72;;;9.22;85.38
81155;BME280;70631;50.436;7.826;2024-02-04T06:27:48;99868.25;;;9.22;85.27
81155;BME280;70631;50.436;7.826;2024-02-04T06:30:14;99881.44;;;9.24;85.38
81155;BME280;70631;50.436;7.826;2024-02-04T06:32:39;99874.66;;;9.19;85.15
81155;BME280;70631;50.436;7.826;2024-02-04T06:35:06;99873.22;;;9.15;85.23
81155;BME280;70631;50.436;7.826;2024-02-04T06:37:31;99878.53;;;9.15;85.28
81155;BME280;70631;50.436;7.826;2024-02-04T06:39:57;99856.28;;;9.16;85.52
81155;BME280;70631;50.436;7.826;2024-02-04T06:42:22;99857.25;;;9.15;85.72
81155;BME280;70631;50.436;7.826;2024-02-04T06:44:47;99864.25;;;9.16;85.53
81155;BME280;70631;50.436;7.826;2024-02-04T06:47:12;99841.31;;;9.15;85.72
81155;BME280;70631;50.436;7.826;2024-02-04T06:49:39;99851.09;;;9.15;85.18
81155;BME280;70631;50.436;7.826;2024-02-04T06:52:05;99850.25;;;9.14;85.43
81155;BME280;70631;50.436;7.826;2024-02-04T06:54:30;99852.19;;;9.12;85.60
81155;BME280;70631;50.436;7.826;2024-02-04T06:56:55;99859.19;;;9.13;85.68
81155;BME280;70631;50.436;7.826;2024-02-04T06:59:21;99868.13;;;9.12;85.51
81155;BME280;70631;50.436;7.826;2024-02-04T07:01:46;99871.50;;;9.14;85.50
81155;BME280;70631;50.436;7.826;2024-02-04T07:04:12;99868.84;;;9.14;85.96
81155;BME280;70631;50.436;7.826;2024-02-04T07:06:37;99871.41;;;9.16;85.58
81155;BME280;70631;50.436;7.826;2024-02-04T07:09:02;99872.47;;;9.13;85.94
81155;BME280;70631;50.436;7.826;2024-02-04T07:11:28;99861.00;;;9.13;85.81
81155;BME280;70631;50.436;7.826;2024-02-04T07:13:53;99875.13;;;9.13;85.61
81155;BME280;70631;50.436;7.826;2024-02-04T07:16:24;99868.13;;;9.12;86.03
81155;BME280;70631;50.436;7.826;2024-02-04T07:18:49;99870.78;;;9.12;85.81
81155;BME280;70631;50.436;7.826;2024-02-04T07:21:15;99865.34;;;9.14;86.15
81155;BME280;70631;50.436;7.826;2024-02-04T07:23:40;99869.81;;;9.13;86.04
81155;BME280;70631;50.436;7.826;2024-02-04T07:26:05;99878.66;;;9.14;85.86
81155;BME280;70631;50.436;7.826;2024-02-04T07:28:30;99867.88;;;9.15;85.86
81155;BME280;70631;50.436;7.826;2024-02-04T07:30:56;99866.19;;;9.14;86.01
81155;BME280;70631;50.436;7.826;2024-02-04T07:33:21;99862.81;;;9.12;85.97
81155;BME280;70631;50.436;7.826;2024-02-04T07:35:46;99872.13;;;9.18;86.20
81155;BME280;70631;50.436;7.826;2024-02-04T07:38:11;99872.97;;;9.18;85.99
81155;BME280;70631;50.436;7.826;2024-02-04T07:40:37;99878.28;;;9.18;85.97
81155;BME280;70631;50.436;7.826;2024-02-04T07:43:02;99874.41;;;9.23;85.88
81155;BME280;70631;50.436;7.826;2024-02-04T07:45:28;99871.53;;;9.26;85.86
81155;BME280;70631;50.436;7.826;2024-02-04T07:47:53;99881.91;;;9.29;85.70
81155;BME280;70631;50.436;7.826;2024-02-04T07:50:18;99870.31;;;9.30;85.65
81155;BME280;70631;50.436;7.826;2024-02-04T07:52:43;99875.63;;;9.30;86.09
81155;BME280;70631;50.436;7.826;2024-02-04T07:55:09;99872.00;;;9.31;85.80
81155;BME280;70631;50.436;7.826;2024-02-04T07:57:35;99867.19;;;9.36;85.54
81155;BME280;70631;50.436;7.826;2024-02-04T08:00:00;99872.41;;;9.37;85.56
81155;BME280;70631;50.436;7.826;2024-02-04T08:02:28;99859.69;;;9.41;85.52
81155;BME280;70631;50.436;7.826;2024-02-04T08:04:53;99858.50;;;9.45;85.32
81155;BME280;70631;50.436;7.826;2024-02-04T08:07:19;99858.50;;;9.45;85.11
81155;BME280;70631;50.436;7.826;2024-02-04T08:09:45;99859.34;;;9.45;85.04
81155;BME280;70631;50.436;7.826;2024-02-04T08:12:11;99856.56;;;9.47;85.20
81155;BME280;70631;50.436;7.826;2024-02-04T08:14:37;99862.59;;;9.49;85.15
81155;BME280;70631;50.436;7.826;2024-02-04T08:17:02;99870.56;;;9.49;85.21
81155;BME280;70631;50.436;7.826;2024-02-04T08:19:27;99865.00;;;9.52;85.53
81155;BME280;70631;50.436;7.826;2024-02-04T08:21:52;99854.38;;;9.52;85.24
81155;BME280;70631;50.436;7.826;2024-02-04T08:24:18;99856.31;;;9.50;84.85
81155;BME280;70631;50.436;7.826;2024-02-04T08:26:43;99863.56;;;9.48;85.22
81155;BME280;70631;50.436;7.826;2024-02-04T08:29:08;99871.31;;;9.51;85.10
81155;BME280;70631;50.436;7.826;2024-02-04T08:31:33;99878.69;;;9.47;84.96
81155;BME280;70631;50.436;7.826;2024-02-04T08:33:59;99876.75;;;9.49;85.17
81155;BME280;70631;50.436;7.826;2024-02-04T08:36:24;99867.34;;;9.57;85.20
81155;BME280;70631;50.436;7.826;2024-02-04T08:38:49;99860.09;;;9.59;84.96
81155;BME280;70631;50.436;7.826;2024-02-04T08:41:15;99841.34;;;9.60;84.57
81155;BME280;70631;50.436;7.826;2024-02-04T08:43:40;99851.13;;;9.60;84.96
81155;BME280;70631;50.436;7.826;2024-02-04T08:46:05;99846.91;;;9.57;84.92
81155;BME280;70631;50.436;7.826;2024-02-04T08:48:30;99868.91;;;9.59;85.20
81155;BME280;70631;50.436;7.826;2024-02-04T08:50:56;99862.63;;;9.60;84.97
81155;BME280;70631;50.436;7.826;2024-02-04T08:53:21;99859.00;;;9.61;85.26
81155;BME280;70631;50.436;7.826;2024-02-04T08:55:46;99858.03;;;9.62;84.92
81155;BME280;70631;50.436;7.826;2024-02-04T08:58:12;99856.44;;;9.60;85.01
81155;BME280;70631;50.436;7.826;2024-02-04T09:00:37;99857.06;;;9.63;85.18
81155;BME280;70631;50.436;7.826;2024-02-04T09:03:03;99854.50;;;9.73;84.63
81155;BME280;70631;50.436;7.826;2024-02-04T09:05:28;99857.53;;;9.79;84.62
81155;BME280;70631;50.436;7.826;2024-02-04T09:07:53;99857.00;;;9.97;84.64
81155;BME280;70631;50.436;7.826;2024-02-04T09:10:20;99860.41;;;9.99;84.16
81155;BME280;70631;50.436;7.826;2024-02-04T09:12:45;99856.53;;;10.03;83.76
81155;BME280;70631;50.436;7.826;2024-02-04T09:15:11;99858.22;;;10.04;84.25
81155;BME280;70631;50.436;7.826;2024-02-04T09:17:36;99852.16;;;10.24;83.94
81155;BME280;70631;50.436;7.826;2024-02-04T09:20:02;99860.47;;;10.42;83.71
81155;BME280;70631;50.436;7.826;2024-02-04T09:22:27;99848.78;;;10.54;83.47
81155;BME280;70631;50.436;7.826;2024-02-04T09:24:52;99854.97;;;10.55;83.43
81155;BME280;70631;50.436;7.826;2024-02-04T09:27:18;99865.28;;;10.48;83.29
81155;BME280;70631;50.436;7.826;2024-02-04T09:29:43;99854.03;;;10.45;83.15
81155;BME280;70631;50.436;7.826;2024-02-04T09:32:08;99851.31;;;10.56;83.29
81155;BME280;70631;50.436;7.826;2024-02-04T09:34:33;99844.63;;;10.61;83.09
81155;BME280;70631;50.436;7.826;2024-02-04T09:36:59;99849.47;;;10.67;83.50
81155;BME280;70631;50.436;7.826;2024-02-04T09:39:25;99841.47;;;10.67;83.04
81155;BME280;70631;50.436;7.826;2024-02-04T09:41:50;99847.84;;;10.76;82.79
81155;BME280;70631;50.436;7.826;2024-02-04T09:44:16;99854.16;;;10.75;82.96
81155;BME280;70631;50.436;7.826;2024-02-04T09:46:41;99859.88;;;10.70;82.79
81155;BME280;70631;50.436;7.826;2024-02-04T09:49:08;99849.78;;;10.74;82.33
81155;BME280;70631;50.436;7.826;2024-02-04T09:51:34;99856.66;;;10.88;82.53
81155;BME280;70631;50.436;7.826;2024-02-04T09:54:03;99858.91;;;10.92;82.62
81155;BME280;70631;50.436;7.826;2024-02-04T09:56:33;99848.69;;;10.97;82.15
81155;BME280;70631;50.436;7.826;2024-02-04T09:58:59;99864.84;;;10.96;82.44
81155;BME280;70631;50.436;7.826;2024-02-04T10:01:26;99861.13;;;10.87;81.94
81155;BME280;70631;50.436;7.826;2024-02-04T10:03:51;99877.00;;;11.10;81.79
81155;BME280;70631;50.436;7.826;2024-02-04T10:06:17;99887.09;;;11.06;81.63
81155;BME280;70631;50.436;7.826;2024-02-04T10:08:42;99881.47;;;10.88;81.83
81155;BME280;70631;50.436;7.826;2024-02-04T10:11:07;99892.75;;;10.81;82.31
81155;BME280;70631;50.436;7.826;2024-02-04T10:13:46;99888.66;;;10.77;81.95
81155;BME280;70631;50.436;7.826;2024-02-04T10:16:13;99877.63;;;10.81;81.94
81155;BME280;70631;50.436;7.826;2024-02-04T10:18:45;99873.97;;;10.82;81.95
81155;BME280;70631;50.436;7.826;2024-02-04T10:21:18;99866.81;;;10.83;81.76
81155;BME280;70631;50.436;7.826;2024-02-04T10:23:47;99859.66;;;10.83;82.26
81155;BME280;70631;50.436;7.826;2024-02-04T10:26:13;99862.81;;;10.88;81.84
81155;BME280;70631;50.436;7.826;2024-02-04T10:28:39;99879.91;;;10.86;81.81
81155;BME280;70631;50.436;7.826;2024-02-04T10:31:06;99868.72;;;10.92;81.91
81155;BME280;70631;50.436;7.826;2024-02-04T10:33:33;99858.38;;;10.98;81.74
81155;BME280;70631;50.436;7.826;2024-02-04T10:35:58;99867.44;;;11.07;81.88
81155;BME280;70631;50.436;7.826;2024-02-04T10:38:23;99859.56;;;11.06;81.66
81155;BME280;70631;50.436;7.826;2024-02-04T10:40:53;99857.88;;;11.05;81.70
81155;BME280;70631;50.436;7.826;2024-02-04T10:43:20;99843.38;;;10.97;81.25
81155;BME280;70631;50.436;7.826;2024-02-04T10:45:46;99843.69;;;11.04;81.53
81155;BME280;70631;50.436;7.826;2024-02-04T10:48:15;99845.75;;;11.21;81.33
81155;BME280;70631;50.436;7.826;2024-02-04T10:50:41;99832.53;;;11.41;81.00
81155;BME280;70631;50.436;7.826;2024-02-04T10:53:11;99824.47;;;11.52;81.07
81155;BME280;70631;50.436;7.826;2024-02-04T10:55:41;99815.50;;;11.62;80.43
81155;BME280;70631;50.436;7.826;2024-02-04T10:58:07;99818.88;;;11.64;80.45
81155;BME280;70631;50.436;7.826;2024-02-04T11:00:34;99828.06;;;11.72;80.19
81155;BME280;70631;50.436;7.826;2024-02-04T11:03:00;99835.41;;;11.79;79.99
81155;BME280;70631;50.436;7.826;2024-02-04T11:05:26;99827.63;;;11.76;80.51
81155;BME280;70631;50.436;7.826;2024-02-04T11:07:52;99818.31;;;11.71;80.18
81155;BME280;70631;50.436;7.826;2024-02-04T11:10:18;99824.81;;;11.78;79.80
81155;BME280;70631;50.436;7.826;2024-02-04T11:12:45;99830.34;;;11.86;79.18
81155;BME280;70631;50.436;7.826;2024-02-04T11:15:13;99832.66;;;11.70;79.56
81155;BME280;70631;50.436;7.826;2024-02-04T11:21:02;99830.09;;;11.58;80.04
81155;BME280;70631;50.436;7.826;2024-02-04T11:23:37;99829.25;;;11.58;80.06
81155;BME280;70631;50.436;7.826;2024-02-04T11:26:07;99821.53;;;11.64;80.00
81155;BME280;70631;50.436;7.826;2024-02-04T11:28:32;99822.56;;;11.73;80.07
81155;BME280;70631;50.436;7.826;2024-02-04T11:30:58;99822.56;;;11.73;79.81
81155;BME280;70631;50.436;7.826;2024-02-04T11:33:23;99830.38;;;11.65;80.05
81155;BME280;70631;50.436;7.826;2024-02-04T11:36:04;99819.75;;;11.75;79.43
81155;BME280;70631;50.436;7.826;2024-02-04T11:38:37;99807.13;;;11.77;80.12
81155;BME280;70631;50.436;7.826;2024-02-04T11:41:03;99798.13;;;11.78;79.75
81155;BME280;70631;50.436;7.826;2024-02-04T11:43:28;99790.59;;;11.83;79.92
81155;BME280;70631;50.436;7.826;2024-02-04T11:45:54;99807.88;;;11.79;80.20
81155;BME280;70631;50.436;7.826;2024-02-04T11:48:19;99803.19;;;11.71;79.80
81155;BME280;70631;50.436;7.826;2024-02-04T11:50:52;99787.28;;;11.70;79.80
81155;BME280;70631;50.436;7.826;2024-02-04T11:53:18;99792.78;;;11.78;79.75
81155;BME280;70631;50.436;7.826;2024-02-04T11:55:44;99779.59;;;11.76;79.57
81155;BME280;70631;50.436;7.826;2024-02-04T11:58:11;99775.94;;;11.77;79.68
81155;BME280;70631;50.436;7.826;2024-02-04T12:00:37;99789.16;;;11.79;79.50
81155;BME280;70631;50.436;7.826;2024-02-04T12:03:04;99790.53;;;11.73;79.76
81155;BME280;70631;50.436;7.826;2024-02-04T12:05:31;99784.16;;;11.64;80.06
81155;BME280;70631;50.436;7.826;2024-02-04T12:08:00;99788.81;;;11.62;80.04
81155;BME280;70631;50.436;7.826;2024-02-04T12:10:26;99770.25;;;11.61;80.22
81155;BME280;70631;50.436;7.826;2024-02-04T12:12:52;99764.63;;;11.54;80.03
81155;BME280;70631;50.436;7.826;2024-02-04T12:15:17;99771.31;;;11.49;80.41
81155;BME280;70631;50.436;7.826;2024-02-04T12:17:43;99773.69;;;11.42;80.32
81155;BME280;70631;50.436;7.826;2024-02-04T12:20:09;99763.84;;;11.33;80.61
81155;BME280;70631;50.436;7.826;2024-02-04T12:22:35;99780.13;;;11.30;81.15
81155;BME280;70631;50.436;7.826;2024-02-04T12:25:02;99772.38;;;11.27;81.47
81155;BME280;70631;50.436;7.826;2024-02-04T12:27:27;99761.69;;;11.27;81.03
81155;BME280;70631;50.436;7.826;2024-02-04T12:29:52;99756.97;;;11.30;81.60
81155;BME280;70631;50.436;7.826;2024-02-04T12:32:18;99751.22;;;11.35;81.47
81155;BME280;70631;50.436;7.826;2024-02-04T12:34:48;99753.88;;;11.35;81.44
81155;BME280;70631;50.436;7.826;2024-02-04T12:37:14;99754.31;;;11.40;81.46
81155;BME280;70631;50.436;7.826;2024-02-04T12:39:39;99746.88;;;11.44;81.29
81155;BME280;70631;50.436;7.826;2024-02-04T12:42:05;99751.81;;;11.48;81.50
81155;BME280;70631;50.436;7.826;2024-02-04T12:44:31;99761.97;;;11.54;81.18
81155;BME280;70631;50.436;7.826;2024-02-04T12:46:56;99752.78;;;11.47;81.51
81155;BME280;70631;50.436;7.826;2024-02-04T12:49:22;99748.34;;;11.57;81.44
81155;BME280;70631;50.436;7.826;2024-02-04T12:51:48;99756.78;;;11.62;81.24
81155;BME280;70631;50.436;7.826;2024-02-04T12:54:13;99756.06;;;11.60;81.26
81155;BME280;70631;50.436;7.826;2024-02-04T12:56:53;99752.97;;;11.55;81.31
81155;BME280;70631;50.436;7.826;2024-02-04T12:59:33;99749.63;;;11.63;81.68
81155;BME280;70631;50.436;7.826;2024-02-04T13:02:08;99750.06;;;11.78;81.09
81155;BME280;70631;50.436;7.826;2024-02-04T13:04:38;99750.75;;;11.70;81.42
81155;BME280;70631;50.436;7.826;2024-02-04T13:07:12;99745.69;;;11.67;81.37